createdAt,value
2023-02-19T00:02:35.838Z,6.80
2023-02-19T00:06:44.627Z,8.60
2023-02-19T00:10:51.976Z,8.70
2023-02-19T00:15:00.416Z,8.00
2023-02-19T00:19:13.614Z,8.10
2023-02-19T00:23:21.215Z,8.60
2023-02-19T00:27:29.225Z,7.40
2023-02-19T00:31:38.180Z,9.00
2023-02-19T00:35:46.207Z,8.40
2023-02-19T00:39:54.010Z,8.50
2023-02-19T00:44:05.703Z,8.50
2023-02-19T00:48:17.581Z,8.30
2023-02-19T00:52:35.159Z,8.90
2023-02-19T00:56:45.199Z,9.90
2023-02-19T01:00:52.954Z,8.40
2023-02-19T01:05:01.346Z,7.60
2023-02-19T01:09:09.974Z,8.40
2023-02-19T01:13:17.743Z,7.70
2023-02-19T01:17:26.658Z,6.80
2023-02-19T01:21:35.131Z,7.50
2023-02-19T01:25:43.380Z,7.50
2023-02-19T01:29:51.083Z,6.30
2023-02-19T01:34:01.829Z,6.70
2023-02-19T01:38:10.323Z,7.30
2023-02-19T01:42:19.127Z,6.70
2023-02-19T01:46:28.510Z,7.10
2023-02-19T01:50:40.749Z,7.10
2023-02-19T01:54:49.141Z,7.10
2023-02-19T01:58:58.462Z,7.30
2023-02-19T02:03:06.952Z,7.70
2023-02-19T02:07:29.430Z,8.50
2023-02-19T02:11:37.650Z,8.00
2023-02-19T02:15:50.767Z,8.40
2023-02-19T02:20:08.505Z,8.40
2023-02-19T02:24:34.621Z,7.80
2023-02-19T02:29:09.441Z,7.80
2023-02-19T02:33:26.403Z,10.90
2023-02-19T02:37:37.692Z,10.70
2023-02-19T02:41:48.172Z,10.50
2023-02-19T02:45:56.328Z,10.10
2023-02-19T02:50:07.147Z,10.30
2023-02-19T02:54:35.381Z,11.90
2023-02-19T02:58:42.740Z,12.20
2023-02-19T03:02:50.256Z,11.30
2023-02-19T03:06:58.858Z,13.00
2023-02-19T03:11:23.471Z,9.80
2023-02-19T03:15:55.120Z,11.10
2023-02-19T03:20:05.292Z,9.80
2023-02-19T03:24:32.501Z,8.40
2023-02-19T03:29:02.591Z,9.20
2023-02-19T03:33:13.322Z,9.20
2023-02-19T03:37:25.570Z,10.30
2023-02-19T03:41:38.616Z,10.10
2023-02-19T03:45:52.974Z,9.40
2023-02-19T03:50:05.130Z,9.30
2023-02-19T03:54:17.678Z,10.10
2023-02-19T03:58:28.705Z,11.10
2023-02-19T04:02:39.973Z,10.90
2023-02-19T04:06:54.664Z,11.60
2023-02-19T04:11:03.406Z,12.20
2023-02-19T04:15:14.017Z,12.80
2023-02-19T04:19:25.130Z,10.70
2023-02-19T04:23:39.483Z,11.10
2023-02-19T04:27:47.689Z,13.50
2023-02-19T04:31:55.521Z,11.80
2023-02-19T04:36:03.740Z,12.60
2023-02-19T04:40:13.282Z,12.40
2023-02-19T04:44:21.208Z,13.10
2023-02-19T04:48:29.555Z,11.00
2023-02-19T04:52:38.236Z,11.80
2023-02-19T04:56:46.164Z,13.50
2023-02-19T05:00:56.582Z,12.20
2023-02-19T05:05:06.636Z,11.60
2023-02-19T05:09:14.060Z,14.20
2023-02-19T05:13:21.858Z,13.20
2023-02-19T05:17:31.775Z,13.90
2023-02-19T05:21:39.656Z,14.60
2023-02-19T05:25:47.564Z,15.10
2023-02-19T05:29:55.508Z,16.30
2023-02-19T05:34:03.791Z,15.90
2023-02-19T05:38:13.009Z,14.90
2023-02-19T05:42:26.550Z,16.30
2023-02-19T05:46:34.289Z,15.90
2023-02-19T05:50:41.925Z,15.60
2023-02-19T05:54:49.820Z,15.90
2023-02-19T05:58:58.449Z,16.80
2023-02-19T06:03:06.391Z,15.60
2023-02-19T06:07:15.154Z,13.80
2023-02-19T06:11:23.562Z,15.00
2023-02-19T06:15:31.717Z,14.40
2023-02-19T06:19:40.781Z,16.00
2023-02-19T06:23:49.069Z,14.50
2023-02-19T06:27:56.830Z,13.00
2023-02-19T06:32:04.286Z,12.70
2023-02-19T06:36:15.001Z,15.50
2023-02-19T06:40:22.807Z,13.30
2023-02-19T06:44:38.999Z,10.00
2023-02-19T06:48:49.074Z,9.70
2023-02-19T06:52:57.091Z,8.00
2023-02-19T06:57:04.808Z,9.60
2023-02-19T07:01:14.726Z,8.10
2023-02-19T07:05:21.902Z,8.70
2023-02-19T07:09:30.423Z,8.20
2023-02-19T07:13:38.556Z,8.00
2023-02-19T07:17:47.871Z,8.00
2023-02-19T07:21:56.523Z,7.70
2023-02-19T07:26:04.341Z,6.00
2023-02-19T07:30:14.791Z,5.80
2023-02-19T07:34:22.551Z,5.90
2023-02-19T07:38:30.488Z,5.60
2023-02-19T07:42:38.319Z,5.70
2023-02-19T07:46:46.276Z,9.50
2023-02-19T07:50:59.168Z,10.70
2023-02-19T07:55:07.408Z,6.50
2023-02-19T07:59:16.308Z,5.20
2023-02-19T08:03:24.126Z,5.10
2023-02-19T08:07:36.334Z,5.60
2023-02-19T08:12:01.278Z,7.60
2023-02-19T08:16:26.634Z,8.90
2023-02-19T08:20:42.769Z,4.30
2023-02-19T08:24:51.686Z,3.90
2023-02-19T08:28:59.358Z,3.10
2023-02-19T08:33:08.652Z,3.10
2023-02-19T08:37:16.554Z,3.60
2023-02-19T08:41:24.006Z,3.30
2023-02-19T08:45:34.166Z,3.60
2023-02-19T08:49:43.134Z,2.50
2023-02-19T08:53:51.396Z,2.60
2023-02-19T08:57:59.394Z,3.30
2023-02-19T09:02:07.564Z,4.20
2023-02-19T09:06:19.039Z,5.00
2023-02-19T09:10:27.189Z,3.80
2023-02-19T09:14:37.493Z,4.40
2023-02-19T09:18:45.961Z,5.40
2023-02-19T09:22:53.801Z,3.70
2023-02-19T09:27:01.591Z,4.10
2023-02-19T09:31:11.166Z,5.90
2023-02-19T09:35:19.479Z,6.40
2023-02-19T09:39:26.814Z,6.70
2023-02-19T09:43:35.153Z,3.50
2023-02-19T09:47:43.362Z,4.50
2023-02-19T09:51:52.749Z,5.40
2023-02-19T09:56:00.249Z,3.40
2023-02-19T10:00:15.146Z,7.10
2023-02-19T10:04:22.998Z,5.00
2023-02-19T10:08:36.112Z,6.50
2023-02-19T10:12:47.790Z,5.90
2023-02-19T10:16:55.583Z,6.50
2023-02-19T10:21:03.420Z,6.00
2023-02-19T10:25:13.980Z,9.40
2023-02-19T10:29:22.171Z,5.30
2023-02-19T10:33:30.172Z,8.20
2023-02-19T10:37:38.469Z,5.30
2023-02-19T10:41:46.175Z,6.50
2023-02-19T10:45:54.135Z,7.60
2023-02-19T10:50:04.639Z,4.40
2023-02-19T10:54:19.297Z,6.20
2023-02-19T10:58:28.672Z,6.50
2023-02-19T11:02:37.232Z,5.10
2023-02-19T11:06:45.711Z,6.50
2023-02-19T11:10:53.322Z,6.80
2023-02-19T11:15:02.172Z,5.70
2023-02-19T11:19:18.862Z,5.00
2023-02-19T11:23:29.573Z,7.50
2023-02-19T11:27:37.511Z,5.30
2023-02-19T11:31:45.035Z,6.90
2023-02-19T11:35:54.070Z,6.60
2023-02-19T11:40:02.335Z,6.40
2023-02-19T11:44:25.898Z,5.60
2023-02-19T11:48:53.871Z,5.10
2023-02-19T11:53:12.088Z,5.40
2023-02-19T11:57:27.486Z,4.70
2023-02-19T12:01:53.853Z,6.50
2023-02-19T12:06:13.647Z,6.00
2023-02-19T12:10:25.899Z,5.80
2023-02-19T12:14:52.733Z,7.00
2023-02-19T12:19:29.523Z,5.30
2023-02-19T12:23:50.334Z,6.90
2023-02-19T12:28:15.222Z,6.10
2023-02-19T12:32:39.045Z,6.00
2023-02-19T12:36:54.856Z,7.40
2023-02-19T12:41:15.255Z,4.80
2023-02-19T12:45:25.959Z,6.60
2023-02-19T12:49:37.054Z,4.90
2023-02-19T12:53:50.355Z,6.00
2023-02-19T12:57:58.374Z,5.60
2023-02-19T13:02:11.564Z,4.70
2023-02-19T13:06:25.894Z,9.00
2023-02-19T13:10:38.003Z,4.90
2023-02-19T13:14:48.881Z,5.50
2023-02-19T13:18:58.268Z,5.00
2023-02-19T13:23:29.445Z,5.70
2023-02-19T13:27:59.670Z,6.70
2023-02-19T13:32:26.730Z,5.70
2023-02-19T13:36:36.542Z,4.70
2023-02-19T13:40:56.335Z,6.50
2023-02-19T13:45:06.120Z,4.10
2023-02-19T13:49:43.536Z,5.70
2023-02-19T13:54:01.142Z,5.00
2023-02-19T13:58:39.832Z,5.70
2023-02-19T14:02:47.499Z,6.60
2023-02-19T14:07:36.756Z,4.30
2023-02-19T14:12:06.926Z,3.70
2023-02-19T14:16:33.797Z,4.40
2023-02-19T14:20:46.550Z,4.80
2023-02-19T14:24:57.087Z,4.70
2023-02-19T14:29:09.061Z,4.60
2023-02-19T14:33:19.438Z,7.30
2023-02-19T14:37:28.897Z,5.60
2023-02-19T14:41:40.875Z,5.40
2023-02-19T14:45:52.034Z,4.10
2023-02-19T14:50:04.122Z,5.30
2023-02-19T14:54:16.489Z,5.50
2023-02-19T14:58:29.808Z,4.40
2023-02-19T15:02:45.432Z,3.60
2023-02-19T15:06:56.936Z,6.90
2023-02-19T15:11:06.196Z,7.80
2023-02-19T15:15:20.390Z,8.00
2023-02-19T15:19:29.458Z,6.40
2023-02-19T15:23:37.896Z,6.80
2023-02-19T15:27:45.191Z,5.30
2023-02-19T15:31:55.299Z,6.10
2023-02-19T15:36:06.448Z,4.00
2023-02-19T15:40:19.087Z,6.60
2023-02-19T15:44:36.926Z,6.40
2023-02-19T15:48:48.263Z,6.60
2023-02-19T15:53:00.515Z,7.20
2023-02-19T15:57:13.781Z,8.60
2023-02-19T16:01:26.597Z,7.30
2023-02-19T16:05:40.081Z,6.80
2023-02-19T16:09:48.794Z,8.50
2023-02-19T16:14:16.897Z,7.50
2023-02-19T16:18:25.094Z,6.80
2023-02-19T16:22:37.155Z,7.80
2023-02-19T16:26:46.193Z,7.30
2023-02-19T16:31:01.173Z,6.90
2023-02-19T16:35:22.495Z,8.00
2023-02-19T16:39:32.761Z,9.50
2023-02-19T16:43:45.283Z,6.90
2023-02-19T16:47:53.497Z,6.90
2023-02-19T16:52:04.210Z,10.90
2023-02-19T16:56:18.628Z,7.00
2023-02-19T17:00:28.024Z,7.40
2023-02-19T17:04:36.204Z,10.00
2023-02-19T17:08:44.387Z,6.40
2023-02-19T17:12:52.421Z,7.10
2023-02-19T17:17:02.439Z,8.20
2023-02-19T17:21:17.752Z,8.90
2023-02-19T17:25:25.742Z,7.90
2023-02-19T17:29:34.297Z,8.90
2023-02-19T17:33:42.772Z,9.90
2023-02-19T17:37:52.378Z,11.20
2023-02-19T17:42:00.701Z,9.50
2023-02-19T17:46:08.804Z,9.20
2023-02-19T17:50:19.055Z,16.40
2023-02-19T17:54:26.708Z,16.70
2023-02-19T17:58:36.281Z,20.70
2023-02-19T18:02:44.513Z,17.10
2023-02-19T18:06:54.077Z,19.10
2023-02-19T18:11:04.921Z,18.30
2023-02-19T18:15:18.448Z,20.50
2023-02-19T18:19:27.394Z,17.50
2023-02-19T18:23:35.286Z,16.70
2023-02-19T18:27:45.601Z,19.70
2023-02-19T18:31:53.840Z,18.10
2023-02-19T18:36:01.553Z,16.80
2023-02-19T18:40:11.778Z,9.90
2023-02-19T18:44:22.115Z,11.60
2023-02-19T18:48:30.558Z,10.40
2023-02-19T18:52:38.034Z,10.80
2023-02-19T18:56:47.333Z,10.60
2023-02-19T19:00:55.296Z,11.20
2023-02-19T19:05:03.335Z,13.20
2023-02-19T19:09:11.524Z,14.70
2023-02-19T19:13:19.099Z,13.30
2023-02-19T19:17:26.997Z,19.10
2023-02-19T19:21:34.792Z,21.60
2023-02-19T19:25:43.215Z,18.40
2023-02-19T19:29:51.630Z,14.90
2023-02-19T19:33:59.301Z,14.50
2023-02-19T19:38:08.397Z,14.20
2023-02-19T19:42:18.728Z,14.00
2023-02-19T19:46:26.716Z,14.00
2023-02-19T19:50:35.058Z,12.10
2023-02-19T19:54:44.120Z,14.00
2023-02-19T19:58:52.427Z,12.30
2023-02-19T20:03:01.389Z,15.40
2023-02-19T20:07:10.231Z,13.60
2023-02-19T20:11:20.707Z,14.50
2023-02-19T20:15:28.548Z,12.20
2023-02-19T20:19:36.886Z,10.00
2023-02-19T20:23:44.932Z,10.40
2023-02-19T20:27:54.780Z,10.20
2023-02-19T20:32:05.177Z,10.60
2023-02-19T20:36:13.860Z,14.80
2023-02-19T20:40:24.534Z,14.90
2023-02-19T20:44:32.261Z,12.60
2023-02-19T20:48:39.901Z,12.30
2023-02-19T20:52:47.792Z,11.50
2023-02-19T20:56:57.105Z,14.40
2023-02-19T21:01:05.476Z,11.10
2023-02-19T21:05:13.788Z,12.60
2023-02-19T21:09:21.876Z,10.70
2023-02-19T21:13:30.338Z,8.90
2023-02-19T21:17:38.212Z,10.20
2023-02-19T21:21:46.345Z,12.10
2023-02-19T21:25:54.997Z,11.20
2023-02-19T21:30:03.171Z,10.70
2023-02-19T21:34:12.610Z,9.80
2023-02-19T21:38:21.179Z,11.80
2023-02-19T21:42:29.193Z,14.00
2023-02-19T21:46:37.374Z,8.20
2023-02-19T21:50:46.104Z,13.00
2023-02-19T21:54:54.073Z,9.50
2023-02-19T21:59:01.991Z,12.10
2023-02-19T22:03:10.557Z,12.90
2023-02-19T22:07:18.734Z,9.60
2023-02-19T22:11:26.227Z,11.40
2023-02-19T22:15:34.182Z,8.20
2023-02-19T22:19:42.016Z,8.40
2023-02-19T22:23:51.156Z,12.20
2023-02-19T22:28:00.169Z,7.20
2023-02-19T22:32:08.537Z,10.20
2023-02-19T22:36:21.888Z,9.30
2023-02-19T22:40:30.177Z,9.50
2023-02-19T22:44:38.441Z,10.30
2023-02-19T22:48:46.244Z,10.40
2023-02-19T22:52:55.306Z,13.20
2023-02-19T22:57:03.926Z,13.00
2023-02-19T23:01:12.322Z,8.90
2023-02-19T23:05:20.642Z,11.40
2023-02-19T23:09:30.443Z,12.20
2023-02-19T23:13:39.022Z,7.70
2023-02-19T23:17:46.735Z,8.00
2023-02-19T23:21:54.505Z,10.00
2023-02-19T23:26:02.005Z,10.50
2023-02-19T23:30:11.725Z,12.20
2023-02-19T23:34:19.781Z,12.20
2023-02-19T23:38:28.566Z,11.30
2023-02-19T23:42:38.315Z,11.00
2023-02-19T23:46:46.129Z,10.30
2023-02-19T23:50:53.838Z,11.20
2023-02-19T23:55:02.020Z,10.30
2023-02-19T23:59:10.011Z,9.20
